Time;durP1;ratioP1;P1;durP2;ratioP2;P2;SDS_P1;SDS_P2;PMS_P1;PMS_P2;Temp;Humidity;BMP_temperature;BMP_pressure;BME280_temperature;BME280_humidity;BME280_pressure;Samples;Min_cycle;Max_cycle;Signal;HPM_P1;HPM_P2
2021/01/30 00:01:17;;;;;;;1.38;0.70;;;;;;;4.94;91.89;95251.53;5021406;28;20049;-73
2021/01/30 00:03:43;;;;;;;3.10;1.00;;;;;;;4.93;92.06;95250.69;5022204;28;20052;-73
2021/01/30 00:06:10;;;;;;;2.55;0.85;;;;;;;4.92;91.56;95251.72;5023855;28;20049;-73
2021/01/30 00:08:36;;;;;;;2.90;0.80;;;;;;;4.90;90.83;95252.94;5021317;28;20478;-73
2021/01/30 00:11:02;;;;;;;3.50;1.00;;;;;;;4.89;91.24;95254.72;5024310;28;20061;-73
2021/01/30 00:13:28;;;;;;;6.50;0.85;;;;;;;4.89;91.55;95257.31;5029182;28;20050;-74
2021/01/30 00:15:54;;;;;;;1.92;0.95;;;;;;;4.88;91.18;95255.75;5021193;28;20049;-73
2021/01/30 00:18:21;;;;;;;4.47;1.08;;;;;;;4.90;91.37;95256.34;5020289;28;20052;-74
2021/01/30 00:20:47;;;;;;;3.83;0.93;;;;;;;4.89;91.56;95257.31;5023159;28;20065;-73
2021/01/30 00:23:13;;;;;;;3.38;0.90;;;;;;;4.90;91.50;95258.94;5027774;28;20474;-73
2021/01/30 00:26:05;;;;;;;4.07;0.98;;;;;;;4.93;91.06;95255.91;5026811;28;20451;-74
2021/01/30 00:28:31;;;;;;;2.80;1.25;;;;;;;4.92;91.39;95256.13;5023020;28;20387;-74
2021/01/30 00:30:58;;;;;;;5.28;1.00;;;;;;;4.92;91.03;95254.31;5026222;28;20065;-73
2021/01/30 00:33:24;;;;;;;8.23;1.50;;;;;;;4.93;91.32;95255.09;5023495;28;20038;-74
2021/01/30 00:35:50;;;;;;;2.03;0.82;;;;;;;4.94;91.27;95265.28;5022176;28;20068;-73
2021/01/30 00:38:16;;;;;;;2.92;1.02;;;;;;;4.93;90.78;95258.50;5028122;28;20041;-73
2021/01/30 00:40:42;;;;;;;3.05;0.90;;;;;;;4.93;90.59;95255.09;5023758;28;20046;-73
2021/01/30 00:43:09;;;;;;;2.88;0.80;;;;;;;4.90;90.90;95265.94;5018047;28;20498;-74
2021/01/30 00:45:35;;;;;;;4.70;0.98;;;;;;;4.88;90.57;95264.31;5023811;28;20046;-73
2021/01/30 00:48:01;;;;;;;6.05;1.25;;;;;;;4.85;90.81;95259.56;5022915;28;20045;-73
2021/01/30 00:50:27;;;;;;;1.25;0.52;;;;;;;4.82;90.59;95256.59;5023423;28;20037;-74
2021/01/30 00:52:54;;;;;;;1.45;0.70;;;;;;;4.78;90.97;95255.41;5022865;28;20041;-73
2021/01/30 00:55:22;;;;;;;3.13;0.80;;;;;;;4.75;90.67;95258.44;5025122;28;20473;-73
2021/01/30 00:57:49;;;;;;;1.67;0.77;;;;;;;4.72;90.82;95258.84;5026047;28;20062;-73
2021/01/30 01:00:22;;;;;;;3.03;0.95;;;;;;;4.70;90.78;95259.06;5026336;28;20057;-73
2021/01/30 01:02:48;;;;;;;1.97;0.93;;;;;;;4.68;90.66;95254.09;5030824;28;20045;-73
2021/01/30 01:05:16;;;;;;;2.00;0.80;;;;;;;4.69;90.70;95254.88;5027636;28;20288;-73
2021/01/30 01:07:50;;;;;;;4.13;0.93;;;;;;;4.70;90.80;95258.28;5019782;28;20041;-74
2021/01/30 01:10:20;;;;;;;2.60;0.65;;;;;;;4.71;90.73;95257.28;5027874;28;20061;-73
2021/01/30 01:12:50;;;;;;;2.55;0.90;;;;;;;4.68;90.56;95261.06;5026389;28;20109;-73
2021/01/30 01:15:18;;;;;;;2.00;0.82;;;;;;;4.63;90.37;95259.09;5026342;28;20053;-74
2021/01/30 01:17:56;;;;;;;2.05;0.60;;;;;;;4.61;90.40;95263.72;5023758;28;20474;-73
2021/01/30 01:20:28;;;;;;;1.48;0.52;;;;;;;4.58;90.46;95273.75;5023958;28;20406;-73
2021/01/30 01:22:57;;;;;;;1.63;0.70;;;;;;;4.55;90.37;95268.94;5024586;28;20054;-73
2021/01/30 01:25:24;;;;;;;2.53;0.95;;;;;;;4.55;90.64;95266.34;5027908;28;20049;-73
2021/01/30 01:27:53;;;;;;;1.40;0.60;;;;;;;4.53;90.44;95266.56;5029600;28;20064;-73
2021/01/30 01:30:22;;;;;;;0.43;0.43;;;;;;;4.54;90.66;95275.16;5023266;28;20045;-73
2021/01/30 01:32:49;;;;;;;1.00;0.70;;;;;;;4.54;90.66;95259.59;5023161;28;20406;-73
2021/01/30 01:35:19;;;;;;;1.02;0.50;;;;;;;4.55;90.62;95254.16;5024342;28;20479;-74
2021/01/30 01:37:51;;;;;;;1.55;0.75;;;;;;;4.53;90.56;95255.38;5029537;28;20045;-73
2021/01/30 01:40:21;;;;;;;1.02;0.75;;;;;;;4.51;90.24;95252.97;5028871;28;20419;-74
2021/01/30 01:42:48;;;;;;;2.03;0.60;;;;;;;4.45;90.12;95252.03;5007931;28;20066;-74
2021/01/30 01:45:21;;;;;;;1.52;0.50;;;;;;;4.45;90.14;95251.22;5023894;28;20394;-73
2021/01/30 01:47:51;;;;;;;1.67;0.50;;;;;;;4.44;90.44;95254.84;5026613;28;20045;-74
2021/01/30 01:50:36;;;;;;;0.65;0.45;;;;;;;4.46;90.43;95245.03;5023857;28;20398;-73
2021/01/30 01:53:11;;;;;;;0.57;0.57;;;;;;;4.50;90.53;95258.41;5026941;28;20038;-73
2021/01/30 01:55:42;;;;;;;0.80;0.50;;;;;;;4.51;90.65;95257.38;5025209;28;20368;-74
2021/01/30 01:58:09;;;;;;;0.70;0.70;;;;;;;4.51;90.71;95257.38;5023836;28;20053;-73
2021/01/30 02:00:45;;;;;;;1.38;0.50;;;;;;;4.50;90.69;95258.41;5019918;28;20045;-73
2021/01/30 02:03:12;;;;;;;0.88;0.63;;;;;;;4.53;90.57;95258.75;5026000;28;20042;-74
2021/01/30 02:05:39;;;;;;;0.57;0.57;;;;;;;4.52;90.56;95253.81;5025232;28;20041;-73
2021/01/30 02:08:14;;;;;;;1.83;0.73;;;;;;;4.54;90.81;95257.78;5026939;28;20402;-74
2021/01/30 02:10:43;;;;;;;1.67;0.60;;;;;;;4.54;90.80;95252.59;5027035;28;20045;-73
2021/01/30 02:13:14;;;;;;;1.08;0.45;;;;;;;4.58;90.74;95250.38;5023939;28;20045;-73
2021/01/30 02:15:46;;;;;;;0.95;0.50;;;;;;;4.58;90.96;95237.38;5025305;28;20034;-73
2021/01/30 02:18:50;;;;;;;0.50;0.50;;;;;;;4.58;90.57;95243.38;5031638;28;20045;-73
2021/01/30 02:21:44;;;;;;;0.93;0.57;;;;;;;4.58;90.34;95234.78;5017088;28;20048;-73
2021/01/30 02:24:54;;;;;;;0.67;0.50;;;;;;;4.56;90.11;95226.41;5025107;28;20046;-73
2021/01/30 02:27:42;;;;;;;0.60;0.60;;;;;;;4.54;90.15;95220.63;5026749;28;20049;-74
2021/01/30 02:30:29;;;;;;;1.85;0.52;;;;;;;4.51;90.00;95224.44;5025721;28;20049;-73
2021/01/30 02:33:34;;;;;;;0.43;0.43;;;;;;;4.47;89.33;95213.69;5021215;28;20061;-74
2021/01/30 02:36:48;;;;;;;0.50;0.50;;;;;;;4.41;89.11;95222.31;5013514;28;20520;-74
2021/01/30 02:39:37;;;;;;;0.95;0.73;;;;;;;4.35;89.14;95222.34;5015999;28;20033;-73
2021/01/30 02:42:21;;;;;;;0.57;0.55;;;;;;;4.29;89.06;95221.38;5017302;28;20046;-74
2021/01/30 02:44:55;;;;;;;1.08;0.63;;;;;;;4.24;89.20;95229.78;5022904;28;20045;-73
2021/01/30 02:47:25;;;;;;;0.63;0.63;;;;;;;4.20;89.08;95231.22;5006468;28;20048;-73
2021/01/30 02:50:02;;;;;;;1.77;0.70;;;;;;;4.14;89.07;95226.06;5021395;28;20045;-73
2021/01/30 02:52:29;;;;;;;1.13;0.68;;;;;;;4.03;89.21;95209.31;5022191;28;20042;-75
2021/01/30 02:54:57;;;;;;;1.45;0.77;;;;;;;3.95;89.42;95210.38;5023470;28;20045;-73
2021/01/30 02:57:25;;;;;;;1.63;0.60;;;;;;;3.93;89.89;95211.59;5030011;28;20053;-74
2021/01/30 02:59:54;;;;;;;3.03;0.82;;;;;;;3.90;90.26;95202.41;5026568;28;20037;-73
2021/01/30 03:02:23;;;;;;;2.45;0.70;;;;;;;3.92;90.43;95202.19;5019991;28;20042;-74
2021/01/30 03:04:52;;;;;;;2.13;0.73;;;;;;;3.94;90.96;95201.00;5023792;28;20045;-74
2021/01/30 03:07:40;;;;;;;0.82;0.70;;;;;;;4.00;91.46;95207.16;5025695;28;20045;-73
2021/01/30 03:10:24;;;;;;;1.25;0.70;;;;;;;4.02;91.61;95207.75;5003323;28;20473;-73
2021/01/30 03:12:55;;;;;;;0.73;0.65;;;;;;;4.03;91.43;95198.94;5022526;28;20064;-73
2021/01/30 03:15:32;;;;;;;0.90;0.70;;;;;;;4.05;91.36;95195.16;5026691;28;20038;-73
2021/01/30 03:18:02;;;;;;;1.25;0.75;;;;;;;4.09;91.65;95203.31;5023223;28;20052;-73
2021/01/30 03:20:36;;;;;;;1.75;0.40;;;;;;;4.12;91.36;95194.34;5027420;28;20053;-73
2021/01/30 03:23:03;;;;;;;0.80;0.57;;;;;;;4.13;91.55;95194.09;5026684;28;20049;-74
2021/01/30 03:25:32;;;;;;;2.72;0.80;;;;;;;4.15;91.45;95197.28;5018637;28;20041;-74
2021/01/30 03:28:00;;;;;;;3.45;0.60;;;;;;;4.17;91.30;95197.09;5021900;28;20053;-73
2021/01/30 03:30:28;;;;;;;14.05;8.48;;;;;;;4.19;91.22;95203.66;5025582;28;20036;-73
2021/01/30 03:32:55;;;;;;;2.50;1.48;;;;;;;4.19;91.32;95201.06;5023640;28;20037;-73
2021/01/30 03:35:21;;;;;;;8.57;5.30;;;;;;;4.20;91.37;95199.25;5024785;28;20052;-73
2021/01/30 03:37:48;;;;;;;2.03;1.05;;;;;;;4.21;90.98;95196.47;5019518;28;20061;-73
2021/01/30 03:40:15;;;;;;;3.97;1.20;;;;;;;4.23;91.18;95204.84;5024308;28;20072;-73
2021/01/30 03:42:43;;;;;;;3.70;0.60;;;;;;;4.26;91.35;95203.63;5027560;28;20390;-74
2021/01/30 03:45:12;;;;;;;1.33;0.63;;;;;;;4.28;91.19;95204.19;5024168;28;20050;-73
2021/01/30 03:47:39;;;;;;;2.63;1.50;;;;;;;4.29;91.17;95198.03;5021826;28;20052;-74
2021/01/30 03:50:08;;;;;;;2.47;0.90;;;;;;;4.30;91.13;95197.00;5019705;28;20048;-74
2021/01/30 03:52:35;;;;;;;3.95;1.73;;;;;;;4.29;91.11;95187.66;5021862;28;20045;-73
2021/01/30 03:55:02;;;;;;;3.78;0.93;;;;;;;4.32;91.17;95199.41;5028768;28;20413;-73
2021/01/30 03:57:29;;;;;;;81.45;33.60;;;;;;;4.33;91.07;95194.00;5020237;28;20478;-73
2021/01/30 03:59:55;;;;;;;13.82;6.57;;;;;;;4.33;91.00;95186.22;5021441;28;20050;-74
2021/01/30 04:02:21;;;;;;;4.03;1.70;;;;;;;4.33;90.94;95178.44;5029637;28;20046;-73
2021/01/30 04:04:47;;;;;;;9.02;3.25;;;;;;;4.36;90.68;95179.81;5022982;28;20054;-73
2021/01/30 04:07:14;;;;;;;1.73;1.33;;;;;;;4.35;90.70;95173.84;5021257;28;20454;-73
2021/01/30 04:09:41;;;;;;;6.93;2.28;;;;;;;4.36;90.62;95172.81;5015390;28;20041;-73
2021/01/30 04:12:08;;;;;;;4.13;2.00;;;;;;;4.38;90.38;95170.81;5024599;28;20050;-73
2021/01/30 04:14:35;;;;;;;1.55;0.98;;;;;;;4.39;90.71;95159.44;5028818;28;20041;-73
2021/01/30 04:17:03;;;;;;;2.88;1.60;;;;;;;4.40;90.22;95165.41;5018920;28;20041;-73
2021/01/30 04:19:29;;;;;;;3.28;0.90;;;;;;;4.40;90.39;95163.59;5021004;28;20113;-73
2021/01/30 04:21:55;;;;;;;4.82;0.95;;;;;;;4.42;90.29;95161.59;5026111;28;20069;-74
2021/01/30 04:24:22;;;;;;;6.43;1.50;;;;;;;4.42;90.05;95163.41;5029282;28;20468;-73
2021/01/30 04:26:49;;;;;;;6.40;1.20;;;;;;;4.43;90.18;95157.19;5022716;28;20050;-74
2021/01/30 04:29:16;;;;;;;4.53;1.10;;;;;;;4.42;90.10;95153.81;5014315;28;20053;-74
2021/01/30 04:31:43;;;;;;;8.18;1.30;;;;;;;4.43;89.91;95159.78;5020844;28;20053;-74
2021/01/30 04:34:09;;;;;;;4.20;1.38;;;;;;;4.45;89.92;95157.78;5022112;28;20046;-74
2021/01/30 04:36:35;;;;;;;6.13;1.33;;;;;;;4.46;90.08;95154.97;5026833;28;20042;-74
2021/01/30 04:39:02;;;;;;;7.32;1.38;;;;;;;4.47;90.08;95148.78;5029813;28;20056;-73
2021/01/30 04:41:43;;;;;;;2.97;1.05;;;;;;;4.48;90.15;95146.97;5024958;28;20486;-73
2021/01/30 04:44:33;;;;;;;6.13;1.20;;;;;;;4.49;90.17;95148.56;5025451;28;20049;-74
2021/01/30 04:47:16;;;;;;;2.97;1.33;;;;;;;4.50;90.05;95149.38;5025224;28;20060;-73
2021/01/30 04:50:24;;;;;;;3.92;1.48;;;;;;;4.50;89.92;95142.38;5025470;28;20041;-74
2021/01/30 04:53:12;;;;;;;3.83;1.30;;;;;;;4.46;89.47;95141.22;5015956;28;20052;-74
2021/01/30 04:55:44;;;;;;;3.38;1.15;;;;;;;4.43;89.73;95139.84;5023849;28;20045;-74
2021/01/30 04:58:44;;;;;;;5.18;1.33;;;;;;;4.42;89.47;95132.25;5020313;28;20421;-73
2021/01/30 05:01:33;;;;;;;3.83;1.35;;;;;;;4.39;89.00;95127.47;5022666;28;20041;-73
2021/01/30 05:04:12;;;;;;;4.82;1.98;;;;;;;4.37;89.41;95126.91;5014030;28;20052;-74
2021/01/30 05:06:50;;;;;;;6.47;2.15;;;;;;;4.35;88.58;95134.91;5007925;28;20044;-73
2021/01/30 05:09:24;;;;;;;8.25;2.08;;;;;;;4.33;88.65;95131.72;5018600;28;20037;-74
2021/01/30 05:12:02;;;;;;;13.32;2.50;;;;;;;4.33;88.71;95131.72;5022124;28;20058;-73
2021/01/30 05:14:34;;;;;;;26.55;9.35;;;;;;;4.35;89.12;95126.31;5024515;28;20037;-73
2021/01/30 05:17:24;;;;;;;42.75;13.40;;;;;;;4.36;87.94;95127.91;5023501;28;20068;-74
2021/01/30 05:19:58;;;;;;;55.92;17.00;;;;;;;4.34;88.11;95116.94;5025696;28;20042;-74
2021/01/30 05:22:31;;;;;;;;;;;;;;;4.34;87.19;95119.53;5022822;28;20025;-73
2021/01/30 05:24:57;;;;;;;18.45;4.80;;;;;;;4.33;88.39;95121.34;5018478;28;19921;-73
2021/01/30 05:27:26;;;;;;;9.50;2.20;;;;;;;4.31;87.99;95107.78;5022222;28;20050;-73
2021/01/30 05:30:01;;;;;;;9.35;2.00;;;;;;;4.31;88.42;95109.59;5025120;28;20432;-74
2021/01/30 05:32:45;;;;;;;11.07;2.67;;;;;;;4.30;87.46;95106.19;5022785;28;20398;-73
2021/01/30 05:35:26;;;;;;;17.33;4.53;;;;;;;4.30;87.72;95100.19;5007286;28;20402;-74
2021/01/30 05:38:04;;;;;;;74.85;27.20;;;;;;;4.30;88.23;95095.78;5016980;28;20042;-74
2021/01/30 05:40:34;;;;;;;40.28;14.73;;;;;;;4.29;88.35;95096.81;5021637;28;20033;-74
2021/01/30 05:43:06;;;;;;;9.90;2.30;;;;;;;4.30;88.27;95095.78;5026658;28;20046;-73
2021/01/30 05:45:55;;;;;;;12.15;2.00;;;;;;;4.30;87.92;95103.59;5030774;28;20037;-74
2021/01/30 05:48:25;;;;;;;7.07;1.80;;;;;;;4.29;88.31;95098.63;5028626;28;20049;-74
2021/01/30 05:50:51;;;;;;;16.92;7.45;;;;;;;4.29;88.54;95099.41;5023036;28;20486;-74
2021/01/30 05:53:23;;;;;;;10.88;2.92;;;;;;;4.30;88.38;95097.59;5022639;28;20038;-73
2021/01/30 05:55:49;;;;;;;12.88;2.55;;;;;;;4.29;88.19;95093.44;5025815;28;20502;-74
2021/01/30 05:58:19;;;;;;;15.68;3.58;;;;;;;4.26;88.21;95084.25;5026563;28;20037;-74
2021/01/30 06:00:46;;;;;;;7.40;2.58;;;;;;;4.24;88.36;95079.28;5021938;28;20036;-73
2021/01/30 06:03:21;;;;;;;10.05;2.03;;;;;;;4.25;88.30;95080.09;5024054;28;20030;-74
2021/01/30 06:05:50;;;;;;;11.38;2.35;;;;;;;4.24;87.98;95070.69;5010846;28;20037;-74
2021/01/30 06:08:30;;;;;;;8.77;2.30;;;;;;;4.23;88.00;95074.31;5020596;28;20467;-74
2021/01/30 06:11:13;;;;;;;7.60;1.65;;;;;;;4.20;88.06;95069.53;5021761;28;20038;-73
2021/01/30 06:14:00;;;;;;;10.10;3.30;;;;;;;4.21;87.72;95071.13;5024565;28;20045;-73
2021/01/30 06:16:41;;;;;;;124.90;42.05;;;;;;;4.22;87.94;95075.28;5029845;28;20045;-74
2021/01/30 06:19:15;;;;;;;130.18;40.38;;;;;;;4.18;87.72;95058.56;5031366;28;20520;-73
2021/01/30 06:21:42;;;;;;;36.67;12.68;;;;;;;4.19;88.03;95055.78;5032041;28;20052;-73
2021/01/30 06:24:12;;;;;;;30.15;8.63;;;;;;;4.18;87.94;95055.97;5024070;28;20457;-74
2021/01/30 06:26:49;;;;;;;139.30;50.70;;;;;;;4.20;87.48;95056.56;5019510;28;20395;-74
2021/01/30 06:29:35;;;;;;;40.13;14.80;;;;;;;4.19;88.04;95060.16;5025964;28;20490;-74
2021/01/30 06:32:21;;;;;;;56.75;21.55;;;;;;;4.22;87.82;95057.13;5031258;28;20060;-74
2021/01/30 06:34:52;;;;;;;23.55;8.65;;;;;;;4.22;87.73;95050.16;5009638;28;20045;-74
2021/01/30 06:37:35;;;;;;;82.03;35.78;;;;;;;4.26;87.21;95058.31;5018859;28;20391;-74
2021/01/30 06:40:15;;;;;;;64.53;27.75;;;;;;;4.26;87.64;95059.13;5026021;28;20046;-73
2021/01/30 06:42:44;;;;;;;80.82;36.92;;;;;;;4.27;87.65;95055.50;5022761;28;20046;-73
2021/01/30 06:45:22;;;;;;;201.57;98.50;;;;;;;4.29;87.91;95055.31;5025390;28;20033;-74
2021/01/30 06:47:50;;;;;;;72.85;35.40;;;;;;;4.33;88.00;95053.09;5029065;28;20068;-73
2021/01/30 06:50:40;;;;;;;33.58;15.48;;;;;;;4.32;87.59;95048.88;5026033;28;20059;-74
2021/01/30 06:53:22;;;;;;;11.13;3.70;;;;;;;4.28;87.70;95058.88;5011940;28;20045;-73
2021/01/30 06:55:49;;;;;;;9.18;2.72;;;;;;;4.27;87.71;95063.28;5018875;28;20061;-74
2021/01/30 06:58:37;;;;;;;9.57;2.42;;;;;;;4.26;88.18;95055.72;5028051;28;20375;-74
2021/01/30 07:01:25;;;;;;;12.55;2.78;;;;;;;4.27;88.11;95063.28;5025259;28;20064;-73
2021/01/30 07:04:27;;;;;;;11.57;3.40;;;;;;;4.29;88.32;95057.91;5026966;28;20039;-74
2021/01/30 07:07:32;;;;;;;13.18;3.20;;;;;;;4.27;88.26;95059.91;5026309;28;20457;-74
2021/01/30 07:10:19;;;;;;;13.75;2.72;;;;;;;4.24;88.33;95048.16;5011476;28;20395;-74
2021/01/30 07:13:10;;;;;;;12.68;2.75;;;;;;;4.25;88.35;95033.38;4996113;28;20048;-74
2021/01/30 07:15:43;;;;;;;11.02;2.75;;;;;;;4.22;88.30;95036.38;5027389;28;20470;-74
2021/01/30 07:18:14;;;;;;;13.32;3.13;;;;;;;4.21;88.49;95027.81;5022840;28;20072;-73
2021/01/30 07:20:48;;;;;;;9.98;2.85;;;;;;;4.20;88.77;95028.00;5022898;28;20044;-74
2021/01/30 07:23:45;;;;;;;9.30;2.60;;;;;;;4.19;88.91;95021.25;5022622;28;20133;-74
2021/01/30 07:26:29;;;;;;;5.68;2.70;;;;;;;4.17;88.66;95013.69;5033916;28;20045;-74
2021/01/30 07:29:00;;;;;;;;;;;;;;;4.19;89.14;95022.03;5023298;28;20490;-73
2021/01/30 07:31:38;;;;;;;10.68;2.55;;;;;;;4.19;88.46;95016.06;5023687;28;19936;-74
2021/01/30 07:34:10;;;;;;;12.20;3.20;;;;;;;4.21;88.62;95017.44;5019653;28;20390;-73
2021/01/30 07:36:44;;;;;;;13.90;3.25;;;;;;;4.24;88.46;95016.22;5024825;28;20045;-74
2021/01/30 07:39:55;;;;;;;13.52;2.80;;;;;;;4.27;88.44;95013.19;5025250;28;20042;-74
2021/01/30 07:42:44;;;;;;;12.75;3.22;;;;;;;4.29;88.28;95018.19;5017465;28;20037;-74
2021/01/30 07:45:16;;;;;;;15.32;2.97;;;;;;;4.31;88.26;95018.75;5012815;28;20040;-73
2021/01/30 07:47:47;;;;;;;10.45;3.05;;;;;;;4.35;88.23;95012.94;5021544;28;20406;-73
2021/01/30 07:50:28;;;;;;;14.45;3.25;;;;;;;4.41;88.50;95013.84;5024524;28;20049;-74
2021/01/30 07:53:08;;;;;;;10.93;3.72;;;;;;;4.46;88.50;95009.63;5014529;28;20041;-74
2021/01/30 07:55:36;;;;;;;15.38;3.78;;;;;;;4.48;88.03;95005.00;5004298;28;20053;-74
2021/01/30 07:58:26;;;;;;;26.50;4.70;;;;;;;4.48;88.27;95002.41;5023878;28;20056;-74
2021/01/30 08:01:31;;;;;;;19.05;3.38;;;;;;;4.50;88.19;94997.00;5039274;28;20038;-74
2021/01/30 08:04:46;;;;;;;11.07;3.20;;;;;;;4.54;87.73;94994.78;5013890;28;20050;-74
2021/01/30 08:07:33;;;;;;;16.30;5.90;;;;;;;4.55;87.90;94991.16;5022266;28;20042;-74
2021/01/30 08:10:38;;;;;;;33.33;12.45;;;;;;;4.57;87.58;94987.34;5023312;28;20054;-74
2021/01/30 08:13:10;;;;;;;20.50;6.55;;;;;;;4.59;87.99;94985.31;5027281;28;20045;-74
2021/01/30 08:15:46;;;;;;;27.95;9.60;;;;;;;4.61;87.61;94985.13;5008537;28;20033;-73
2021/01/30 08:18:27;;;;;;;33.00;11.18;;;;;;;4.62;88.05;94979.72;5019876;28;20037;-74
2021/01/30 08:21:19;;;;;;;17.08;3.85;;;;;;;4.64;88.02;94985.50;5021906;28;20394;-74
2021/01/30 08:24:08;;;;;;;45.78;20.10;;;;;;;4.67;87.67;94979.84;5021835;28;20485;-74
2021/01/30 08:26:39;;;;;;;31.23;11.93;;;;;;;4.67;87.85;94984.25;5027908;28;20409;-74
2021/01/30 08:29:10;;;;;;;31.48;11.98;;;;;;;4.68;87.90;94989.25;5023646;28;20401;-73
2021/01/30 08:31:38;;;;;;;20.65;5.53;;;;;;;4.73;87.91;94982.59;5018098;28;20040;-74
2021/01/30 08:34:25;;;;;;;43.47;19.80;;;;;;;4.74;87.80;94978.97;5025591;28;20386;-74
2021/01/30 08:36:57;;;;;;;36.17;15.38;;;;;;;4.76;87.94;94980.34;5015473;28;20041;-73
2021/01/30 08:39:38;;;;;;;24.20;11.05;;;;;;;4.78;87.86;94977.53;5019648;28;20489;-73
2021/01/30 08:42:20;;;;;;;17.30;6.53;;;;;;;4.82;88.17;94976.88;5023880;28;20041;-74
2021/01/30 08:44:49;;;;;;;15.45;3.53;;;;;;;4.83;87.88;94973.28;5021762;28;20042;-74
2021/01/30 08:47:54;;;;;;;223.07;86.47;;;;;;;4.85;87.70;94975.66;5025323;28;20467;-74
2021/01/30 08:50:26;;;;;;;35.38;12.00;;;;;;;4.85;87.89;94976.47;5015771;28;20402;-73
2021/01/30 08:53:14;;;;;;;20.38;3.83;;;;;;;4.86;87.87;94970.25;5018092;28;20466;-73
2021/01/30 08:55:46;;;;;;;14.48;3.75;;;;;;;4.88;87.77;94970.81;5022079;28;20080;-74
2021/01/30 08:58:36;;;;;;;14.93;4.15;;;;;;;4.90;87.53;94975.81;5023290;28;20042;-74
2021/01/30 09:01:30;;;;;;;18.05;4.07;;;;;;;4.92;87.71;94968.59;5021214;28;20030;-73
2021/01/30 09:03:58;;;;;;;22.65;4.03;;;;;;;4.94;87.80;94969.16;5012268;28;20041;-74
2021/01/30 09:06:39;;;;;;;20.00;3.67;;;;;;;4.97;87.76;94967.94;5023860;28;20038;-74
2021/01/30 09:09:22;;;;;;;23.05;5.45;;;;;;;5.00;87.66;94970.09;5020977;28;20046;-74
2021/01/30 09:11:53;;;;;;;17.42;5.05;;;;;;;5.04;87.42;94972.03;5010379;28;20399;-74
2021/01/30 09:14:20;;;;;;;13.63;4.85;;;;;;;5.08;87.55;94975.78;5022740;28;20049;-74
2021/01/30 09:16:58;;;;;;;16.00;3.90;;;;;;;5.12;87.37;94967.53;5019494;28;20054;-74
2021/01/30 09:19:51;;;;;;;13.32;4.07;;;;;;;5.16;87.35;94969.47;5027340;28;20045;-74
2021/01/30 09:22:43;;;;;;;18.48;4.00;;;;;;;5.19;86.83;94970.88;5029224;28;20049;-74
2021/01/30 09:25:36;;;;;;;9.93;3.08;;;;;;;5.19;86.32;94965.66;5030734;28;20044;-74
2021/01/30 09:28:05;;;;;;;16.85;3.45;;;;;;;5.21;87.06;94968.84;5022291;28;20038;-74
2021/01/30 09:30:37;;;;;;;15.32;3.22;;;;;;;5.23;87.07;94967.59;5026030;28;20053;-74
2021/01/30 09:33:29;;;;;;;10.10;2.90;;;;;;;5.26;86.65;94966.34;5020474;28;20037;-74
2021/01/30 09:36:09;;;;;;;13.63;3.45;;;;;;;5.28;87.16;94972.91;5021191;28;20042;-74
2021/01/30 09:38:47;;;;;;;18.45;3.85;;;;;;;5.33;87.16;94974.06;5028313;28;20037;-74
2021/01/30 09:41:24;;;;;;;12.55;3.03;;;;;;;5.35;86.63;94972.03;5030899;28;20053;-74
2021/01/30 09:44:08;;;;;;;13.48;3.35;;;;;;;5.37;86.28;94975.19;5025224;28;20029;-73
2021/01/30 09:46:41;;;;;;;11.85;3.00;;;;;;;5.35;86.49;94972.81;5025536;28;20379;-74
2021/01/30 09:49:19;;;;;;;18.77;3.10;;;;;;;5.37;86.73;94959.59;5028658;28;20041;-74
2021/01/30 09:51:46;;;;;;;18.02;3.30;;;;;;;5.41;86.92;94960.75;5027119;28;20037;-74
2021/01/30 09:54:17;;;;;;;18.98;3.65;;;;;;;5.43;86.88;94962.09;5022700;28;20049;-74
2021/01/30 09:56:46;;;;;;;14.38;3.08;;;;;;;5.46;86.91;94959.09;5025683;28;20382;-73
2021/01/30 09:59:15;;;;;;;15.07;3.42;;;;;;;5.52;87.01;94961.78;5019005;28;20414;-73
2021/01/30 10:01:45;;;;;;;20.05;3.60;;;;;;;5.56;86.86;94957.72;5027007;28;20081;-74
2021/01/30 10:04:15;;;;;;;21.42;4.25;;;;;;;5.61;86.92;94955.28;5026826;28;20049;-74
2021/01/30 10:06:42;;;;;;;18.10;3.60;;;;;;;5.66;86.70;94952.78;5028549;28;20049;-73
2021/01/30 10:09:20;;;;;;;18.05;4.03;;;;;;;5.70;85.67;94948.72;5014714;28;20041;-74
2021/01/30 10:11:52;;;;;;;15.65;3.75;;;;;;;5.75;86.06;94948.03;5020974;28;20033;-74
2021/01/30 10:14:20;;;;;;;14.68;3.25;;;;;;;5.80;85.96;94932.56;5022263;28;20049;-74
2021/01/30 10:16:59;;;;;;;12.88;3.50;;;;;;;5.85;85.97;94936.06;5020173;28;20050;-74
2021/01/30 10:19:29;;;;;;;15.88;4.05;;;;;;;5.93;86.09;94934.94;5013802;28;20053;-74
2021/01/30 10:21:56;;;;;;;12.27;3.80;;;;;;;5.97;85.91;94927.53;5026274;28;20037;-73
2021/01/30 10:24:28;;;;;;;17.50;4.40;;;;;;;5.97;85.39;94925.72;5021242;28;20057;-73
2021/01/30 10:27:10;;;;;;;18.08;3.90;;;;;;;5.99;85.05;94922.88;5021571;28;20057;-73
2021/01/30 10:29:37;;;;;;;11.18;3.40;;;;;;;6.02;85.64;94917.22;5033961;28;20424;-73
2021/01/30 10:32:11;;;;;;;18.77;4.75;;;;;;;6.02;85.45;94915.41;5023233;28;20045;-73
2021/01/30 10:34:44;;;;;;;23.00;4.93;;;;;;;6.05;85.42;94917.56;5023275;28;20041;-73
2021/01/30 10:37:15;;;;;;;18.42;3.63;;;;;;;6.08;85.56;94914.50;5024785;28;20034;-73
2021/01/30 10:39:50;;;;;;;16.75;3.47;;;;;;;6.06;85.11;94903.53;5025852;28;20042;-73
2021/01/30 10:42:22;;;;;;;12.30;3.28;;;;;;;6.08;84.80;94898.88;5024648;28;20477;-73
2021/01/30 10:45:10;;;;;;;16.17;3.00;;;;;;;6.09;84.82;94899.69;5028962;28;20041;-73
2021/01/30 10:47:37;;;;;;;7.68;2.35;;;;;;;6.09;85.01;94895.28;5018761;28;20048;-73
2021/01/30 10:50:26;;;;;;;8.90;2.88;;;;;;;6.12;84.18;94886.22;5023549;28;20493;-73
2021/01/30 10:52:52;;;;;;;8.93;2.83;;;;;;;6.15;84.58;94880.53;5026616;28;20052;-73
2021/01/30 10:55:21;;;;;;;12.25;2.60;;;;;;;6.18;84.23;94880.09;5021991;28;20038;-73
2021/01/30 10:57:48;;;;;;;9.85;2.75;;;;;;;6.20;84.26;94885.88;5030173;28;20045;-73
2021/01/30 11:00:27;;;;;;;7.07;2.05;;;;;;;6.22;83.23;94877.84;5026748;28;20045;-74
2021/01/30 11:02:54;;;;;;;4.18;1.65;;;;;;;6.23;83.82;94871.59;5023223;28;20089;-73
2021/01/30 11:05:20;;;;;;;8.73;1.90;;;;;;;6.23;84.09;94875.00;5020340;28;20466;-73
2021/01/30 11:07:51;;;;;;;7.90;1.98;;;;;;;6.26;83.63;94871.94;5023654;28;20042;-73
2021/01/30 11:10:25;;;;;;;10.00;1.65;;;;;;;6.28;83.96;94864.69;5027677;28;20470;-73
2021/01/30 11:12:52;;;;;;;8.95;1.70;;;;;;;6.29;83.43;94868.09;5024623;28;20041;-74
2021/01/30 11:15:22;;;;;;;12.20;2.53;;;;;;;6.32;83.39;94864.22;5019124;28;20367;-73
2021/01/30 11:17:50;;;;;;;9.18;2.08;;;;;;;6.36;83.79;94860.94;5021570;28;20387;-74
2021/01/30 11:20:48;;;;;;;7.82;1.90;;;;;;;6.39;82.22;94849.28;5029998;28;20037;-73
2021/01/30 11:23:35;;;;;;;8.65;2.40;;;;;;;6.37;82.69;94846.91;5023376;28;20057;-73
2021/01/30 11:26:34;;;;;;;9.23;1.77;;;;;;;6.38;83.08;94839.88;5026405;28;20049;-73
2021/01/30 11:29:06;;;;;;;6.32;1.65;;;;;;;6.37;82.77;94833.09;5022213;28;20072;-74
2021/01/30 11:31:36;;;;;;;3.83;1.40;;;;;;;6.38;83.11;94832.84;5020509;28;20064;-73
2021/01/30 11:34:03;;;;;;;4.95;1.55;;;;;;;6.39;83.04;94818.81;5022718;28;20042;-73
2021/01/30 11:36:29;;;;;;;8.40;2.20;;;;;;;6.44;83.18;94808.50;5027962;28;20037;-73
2021/01/30 11:39:01;;;;;;;5.80;2.17;;;;;;;6.47;83.32;94805.44;5017861;28;20045;-73
2021/01/30 11:41:27;;;;;;;5.88;1.67;;;;;;;6.50;82.86;94804.97;5020921;28;20045;-73
2021/01/30 11:43:54;;;;;;;3.92;1.75;;;;;;;6.47;82.45;94797.63;5024176;28;20037;-73
2021/01/30 11:46:21;;;;;;;7.40;1.27;;;;;;;6.44;82.25;94792.88;5028298;28;20481;-73
2021/01/30 11:48:48;;;;;;;7.28;1.13;;;;;;;6.42;82.13;94794.13;5027131;28;20045;-73
2021/01/30 11:51:28;;;;;;;6.03;2.10;;;;;;;6.34;81.09;94794.50;5016124;28;20038;-74
2021/01/30 11:53:55;;;;;;;10.68;3.00;;;;;;;6.25;82.48;94784.44;5022985;28;20042;-73
2021/01/30 11:56:22;;;;;;;12.25;3.65;;;;;;;6.17;82.11;94786.63;5024746;28;20383;-73
2021/01/30 11:58:48;;;;;;;13.20;3.67;;;;;;;6.12;82.12;94784.72;5021819;28;20048;-73
2021/01/30 12:01:16;;;;;;;12.57;4.00;;;;;;;6.07;82.39;94782.03;5022286;28;20046;-73
2021/01/30 12:03:42;;;;;;;11.90;3.13;;;;;;;6.03;82.72;94780.91;5006321;28;20405;-73
2021/01/30 12:06:09;;;;;;;7.90;2.42;;;;;;;5.97;82.68;94776.63;5024104;28;20057;-73
2021/01/30 12:08:37;;;;;;;5.05;2.03;;;;;;;5.97;83.46;94774.03;5029589;28;20045;-73
2021/01/30 12:11:05;;;;;;;11.40;3.63;;;;;;;5.97;83.34;94766.22;5023102;28;20176;-73
2021/01/30 12:13:31;;;;;;;7.72;3.15;;;;;;;5.98;83.49;94759.97;5019979;28;20487;-73